Ginys del Meteocat

Dades de l'estació automàtica Barcelona - el Raval

?
?
Resum diari 23:00 TU
Dades diàries de l'estació meteorològica
Temperatura mitjana 12.5 °C
Temperatura màxima 14.5 °C 13:03 TU
Temperatura mínima 10.5 °C 7:16 TU
Humitat relativa mitjana 79%
Precipitació acumulada 0.0 mm
Ratxa màxima del vent (10 m) 16.2 km/h - 93º 16:19 TU
Pressió atmosfèrica mitjana 1019.9 hPa
Irradiació solar global 4.7 MJ/m2

El tram horari està expressat en Temps Universal (TU). Cal sumar una hora en horari d'hivern i dues en horari d'estiu per passar a l'hora oficial.

Barcelona - el Raval

Metadades estació meteorol´gica
Municipi Barcelona
Comarca Barcelonès
Altitud 33 m
Data alta 11.10.2006
Estat actual Operativa
Dades de període
Període
TU
TM
°C
TX
°C
TN
°C
HRM
%
PPT
mm
VVM (10 m)
km/h
DVM (10 m)
graus
VVX (10 m)
km/h
PM
hPa
RS
W/m2
00:00 - 00:30 11.7 11.8 11.6 75 0.0 3.2 35 7.6 1021.5 0
00:30 - 01:00 11.7 11.7 11.6 76 0.0 2.5 33 9.4 1021.3 0
01:00 - 01:30 11.7 11.8 11.5 76 0.0 3.6 43 11.5 1021.1 0
01:30 - 02:00 11.4 11.5 11.3 78 0.0 1.8 41 6.5 1021.2 0
02:00 - 02:30 11.5 11.7 11.4 78 0.0 2.5 19 7.6 1021.1 0
02:30 - 03:00 11.5 11.6 11.5 77 0.0 1.8 44 5.8 1021.0 0
03:00 - 03:30 11.5 11.6 11.4 79 0.0 1.8 50 6.1 1020.8 0
03:30 - 04:00 11.6 11.7 11.5 78 0.0 2.9 42 6.1 1020.6 0
04:00 - 04:30 11.4 11.5 11.2 78 0.0 2.9 45 6.5 1020.6 0
04:30 - 05:00 11.0 11.2 10.9 79 0.0 3.6 46 7.9 1020.5 0
05:00 - 05:30 10.9 11.0 10.8 80 0.0 3.6 38 9.0 1020.4 0
05:30 - 06:00 11.0 11.1 10.9 80 0.0 2.5 38 8.6 1020.4 0
06:00 - 06:30 10.9 11.0 10.8 80 0.0 4.0 40 9.4 1020.4 0
06:30 - 07:00 10.8 10.8 10.7 78 0.0 4.3 56 10.1 1020.4 0
07:00 - 07:30 10.6 10.7 10.5 74 0.0 3.6 34 10.4 1020.6 4
07:30 - 08:00 10.9 11.0 10.7 74 0.0 4.7 44 10.1 1020.9 16
08:00 - 08:30 11.2 11.5 11.0 76 0.0 2.9 24 10.4 1021.2 58
08:30 - 09:00 11.7 11.9 11.5 78 0.0 4.7 34 9.4 1021.4 95
09:00 - 09:30 12.1 12.4 11.9 77 0.0 5.4 46 14.4 1021.5 187
09:30 - 10:00 12.5 12.6 12.3 75 0.0 4.3 40 11.2 1021.6 181
10:00 - 10:30 12.7 12.8 12.5 75 0.0 5.0 48 13.7 1021.6 180
10:30 - 11:00 12.7 12.9 12.6 74 0.0 5.0 38 12.2 1021.6 158
11:00 - 11:30 13.0 13.2 12.8 74 0.0 5.4 39 10.8 1021.2 184
11:30 - 12:00 13.3 13.4 13.1 72 0.0 5.4 53 12.6 1020.7 200
12:00 - 12:30 13.8 14.3 13.1 68 0.0 5.0 40 13.3 1020.2 346
12:30 - 13:00 14.2 14.3 13.9 66 0.0 6.1 59 13.3 1019.7 325
13:00 - 13:30 14.1 14.5 13.9 66 0.0 6.5 71 12.2 1019.5 238
13:30 - 14:00 14.0 14.1 13.9 70 0.0 6.1 87 11.5 1019.1 124
14:00 - 14:30 13.8 14.0 13.7 72 0.0 7.9 90 12.6 1018.9 105
14:30 - 15:00 13.6 13.7 13.4 76 0.0 8.3 85 14.4 1018.7 79
15:00 - 15:30 13.4 13.5 13.3 79 0.0 10.1 89 15.1 1018.5 66
15:30 - 16:00 13.3 13.4 13.3 82 0.0 9.0 88 15.8 1018.4 50
16:00 - 16:30 13.3 13.4 13.2 83 0.0 8.3 87 16.2 1018.2 26
16:30 - 17:00 13.3 13.3 13.2 84 0.0 6.8 86 12.2 1018.2 7
17:00 - 17:30 13.2 13.2 13.1 86 0.0 7.2 80 14.8 1018.4 0
17:30 - 18:00 13.1 13.1 13.1 86 0.0 6.8 72 12.6 1018.6 0
18:00 - 18:30 13.1 13.2 13.1 86 0.0 5.4 70 13.3 1018.8 0
18:30 - 19:00 13.3 13.3 13.2 86 0.0 5.8 68 13.0 1018.8 0
19:00 - 19:30 13.3 13.4 13.3 86 0.0 5.8 73 13.3 1018.8 0
19:30 - 20:00 13.4 13.4 13.3 86 0.0 5.0 74 9.7 1018.8 0
20:00 - 20:30 13.4 13.4 13.3 88 0.0 4.3 71 9.0 1019.0 0
20:30 - 21:00 13.4 13.4 13.3 88 0.0 5.4 75 11.5 1018.9 0
21:00 - 21:30 13.3 13.3 13.2 87 0.0 4.3 46 12.2 1018.8 0
21:30 - 22:00 13.2 13.2 13.1 87 0.0 5.0 59 10.8 1018.7 0
22:00 - 22:30 13.0 13.1 13.0 87 0.0 3.6 42 9.4 1018.7 0
22:30 - 23:00 12.9 13.0 12.8 86 0.0 4.3 33 11.2 1018.4 0
23:00 - 23:30 12.7 12.8 12.7 86 0.0 3.6 34 9.4 1018.3 0

Les dades en taronja només han passat un control de qualitat automàtic. Resta pendent la seva validació definitiva.